Time;durP1;ratioP1;P1;durP2;ratioP2;P2;SDS_P1;SDS_P2;PMS_P1;PMS_P2;Temp;Humidity;BMP_temperature;BMP_pressure;BME280_temperature;BME280_humidity;BME280_pressure;Samples;Min_cycle;Max_cycle;Signal;HPM_P1;HPM_P2
2022/01/15 00:01:30;;;;;;;34.75;14.18;;;7.30;88.60;;;;;;5015196;28;20029;-30
2022/01/15 00:03:56;;;;;;;28.23;14.20;;;7.30;88.60;;;;;;5015037;28;20109;-29
2022/01/15 00:06:21;;;;;;;30.10;14.30;;;7.30;88.60;;;;;;5014813;28;20026;-30
2022/01/15 00:08:47;;;;;;;32.10;15.00;;;7.30;88.60;;;;;;5014798;28;20034;-29
2022/01/15 00:11:12;;;;;;;30.58;15.38;;;7.30;88.60;;;;;;5014695;28;20105;-30
2022/01/15 00:13:41;;;;;;;31.10;14.77;;;7.30;88.50;;;;;;5014629;28;20466;-30
2022/01/15 00:16:10;;;;;;;35.38;14.70;;;7.30;88.60;;;;;;5029833;28;20397;-31
2022/01/15 00:19:03;;;;;;;33.53;14.80;;;7.30;88.70;;;;;;5014946;28;20053;-31
2022/01/15 00:21:28;;;;;;;32.53;13.77;;;7.20;88.60;;;;;;5014645;28;20022;-31
2022/01/15 00:23:54;;;;;;;29.60;13.93;;;7.20;88.60;;;;;;5014536;28;20040;-30
2022/01/15 00:26:20;;;;;;;30.30;15.00;;;7.20;88.70;;;;;;5014417;28;20029;-30
2022/01/15 00:28:45;;;;;;;29.23;13.93;;;7.20;88.80;;;;;;5014423;28;20079;-33
2022/01/15 00:31:11;;;;;;;26.65;13.02;;;7.20;88.70;;;;;;5014386;28;20536;-30
2022/01/15 00:33:37;;;;;;;29.10;12.93;;;7.20;88.70;;;;;;5014171;28;20029;-31
2022/01/15 00:36:03;;;;;;;27.08;13.38;;;7.20;88.70;;;;;;5014174;28;20042;-32
2022/01/15 00:38:29;;;;;;;30.13;13.57;;;7.20;88.60;;;;;;5014270;28;20029;-30
2022/01/15 00:40:55;;;;;;;28.00;14.00;;;7.10;88.60;;;;;;5014236;28;20051;-34
2022/01/15 00:43:21;;;;;;;28.85;13.45;;;7.10;88.70;;;;;;5014446;28;20050;-34
2022/01/15 00:45:47;;;;;;;30.40;13.43;;;7.10;88.70;;;;;;5013015;28;20398;-30
2022/01/15 00:48:13;;;;;;;30.48;13.57;;;7.00;88.70;;;;;;5014050;28;20030;-31
2022/01/15 00:50:38;;;;;;;26.98;12.77;;;7.00;88.80;;;;;;5014003;28;20026;-31
2022/01/15 00:53:04;;;;;;;27.27;12.40;;;7.00;88.80;;;;;;5013938;28;20049;-31
2022/01/15 00:55:30;;;;;;;25.27;12.95;;;7.00;89.30;;;;;;5013333;28;20021;-33
2022/01/15 00:57:55;;;;;;;27.42;11.98;;;7.00;88.80;;;;;;5013915;28;20092;-31
2022/01/15 01:00:24;;;;;;;24.70;12.43;;;7.00;88.80;;;;;;5013890;28;20117;-30
2022/01/15 01:02:50;;;;;;;24.58;12.30;;;7.00;88.90;;;;;;5028975;28;20061;-30
2022/01/15 01:05:17;;;;;;;26.83;11.85;;;6.90;88.80;;;;;;5013788;28;20537;-30
2022/01/15 01:07:43;;;;;;;25.90;12.13;;;7.00;88.80;;;;;;5013761;28;20026;-32
2022/01/15 01:23:17;;;;;;;25.13;11.35;;;6.90;88.80;;;;;;5013818;28;20061;-30
2022/01/15 01:25:46;;;;;;;26.25;11.13;;;6.80;88.80;;;;;;5028767;28;20030;-30
2022/01/15 01:28:20;;;;;;;25.95;11.88;;;6.80;88.80;;;;;;5013787;28;20359;-33
2022/01/15 01:31:01;;;;;;;;;;;6.90;88.90;;;;;;5013803;28;20025;-35
2022/01/15 01:38:59;;;;;;;24.38;11.32;;;6.70;89.00;;;;;;4994431;28;20034;-31
2022/01/15 01:41:34;;;;;;;24.52;10.88;;;6.70;89.00;;;;;;5013525;28;20105;-34
2022/01/15 01:44:02;;;;;;;25.15;10.60;;;6.70;88.90;;;;;;5013199;28;20053;-30
2022/01/15 01:48:55;;;;;;;25.00;11.10;;;6.70;89.00;;;;;;5013270;28;20449;-33
2022/01/15 01:51:31;;;;;;;23.30;10.60;;;6.70;88.90;;;;;;5013638;28;20022;-31
2022/01/15 01:53:59;;;;;;;24.83;10.65;;;6.70;89.00;;;;;;5013383;28;20034;-31
2022/01/15 01:56:25;;;;;;;23.92;10.30;;;6.60;89.00;;;;;;5013160;28;20133;-30
2022/01/15 01:58:50;;;;;;;20.75;9.93;;;6.60;89.00;;;;;;5013089;28;20045;-30
2022/01/15 02:01:16;;;;;;;25.10;10.82;;;6.70;89.10;;;;;;5028307;28;20180;-30
2022/01/15 02:03:42;;;;;;;23.30;10.75;;;6.60;89.00;;;;;;5013191;28;20021;-30
2022/01/15 02:06:08;;;;;;;22.60;9.70;;;6.70;89.10;;;;;;5014866;28;20025;-30
2022/01/15 02:08:35;;;;;;;23.38;10.02;;;6.70;89.10;;;;;;5017072;28;20022;-32
2022/01/15 02:11:03;;;;;;;24.13;11.48;;;6.60;88.90;;;;;;5017192;28;20030;-33
2022/01/15 02:13:30;;;;;;;23.63;10.40;;;6.60;88.90;;;;;;5016825;28;20029;-30
2022/01/15 02:15:59;;;;;;;20.80;9.35;;;6.60;89.00;;;;;;5017116;28;20018;-31
2022/01/15 02:18:27;;;;;;;19.98;9.43;;;6.60;88.90;;;;;;5016886;28;20046;-30
2022/01/15 02:23:41;;;;;;;20.15;9.52;;;6.60;89.00;;;;;;5017113;28;20034;-31
2022/01/15 02:26:09;;;;;;;19.70;9.40;;;6.60;89.00;;;;;;5016940;28;20026;-30
2022/01/15 02:28:40;;;;;;;19.42;8.75;;;6.60;89.00;;;;;;5016795;28;20538;-31
2022/01/15 02:31:10;;;;;;;18.85;8.55;;;6.60;88.90;;;;;;5016634;28;20072;-29
2022/01/15 02:33:37;;;;;;;17.67;7.97;;;6.50;89.00;;;;;;5016414;28;20030;-31
2022/01/15 02:36:06;;;;;;;18.05;8.65;;;6.50;88.80;;;;;;5016427;28;20042;-32
2022/01/15 02:38:31;;;;;;;20.63;8.93;;;6.50;88.90;;;;;;5016774;28;20077;-30
2022/01/15 02:40:57;;;;;;;17.42;8.27;;;6.50;89.00;;;;;;5016411;28;20029;-30
2022/01/15 02:43:32;;;;;;;16.50;7.47;;;6.50;88.90;;;;;;5016337;28;20030;-34
2022/01/15 02:46:17;;;;;;;14.82;7.85;;;6.40;88.90;;;;;;5016611;28;20071;-31
2022/01/15 02:48:43;;;;;;;18.92;7.70;;;6.50;89.00;;;;;;5016293;28;20060;-33
2022/01/15 02:51:11;;;;;;;17.48;8.18;;;6.50;89.00;;;;;;5016106;28;20029;-30
2022/01/15 02:53:37;;;;;;;16.55;8.15;;;6.50;88.90;;;;;;5016119;28;20037;-30
2022/01/15 02:56:03;;;;;;;15.23;7.97;;;6.50;88.90;;;;;;5016304;28;20018;-36
2022/01/15 02:58:28;;;;;;;14.35;7.20;;;6.50;88.80;;;;;;5016089;28;20026;-31
2022/01/15 03:00:54;;;;;;;15.60;7.43;;;6.40;88.90;;;;;;5016183;28;20559;-32
2022/01/15 03:03:20;;;;;;;13.85;7.15;;;6.40;88.90;;;;;;5016078;28;20033;-31
2022/01/15 03:05:46;;;;;;;13.68;6.93;;;6.40;88.80;;;;;;5016024;28;20054;-30
2022/01/15 03:08:11;;;;;;;14.48;6.85;;;6.40;88.90;;;;;;5016206;28;20054;-30
2022/01/15 03:10:37;;;;;;;15.57;7.07;;;6.30;88.80;;;;;;5015876;28;20375;-29
2022/01/15 03:13:10;;;;;;;14.95;7.07;;;6.30;88.80;;;;;;5015890;28;20022;-29
2022/01/15 03:15:36;;;;;;;14.32;6.82;;;6.30;88.80;;;;;;5031085;28;20029;-29
2022/01/15 03:18:01;;;;;;;14.48;6.85;;;6.20;88.80;;;;;;5015133;28;20025;-29
2022/01/15 03:20:27;;;;;;;15.52;7.93;;;6.20;88.80;;;;;;5015642;28;20022;-31
2022/01/15 03:22:52;;;;;;;14.07;7.00;;;6.20;88.90;;;;;;5015739;28;20022;-30
2022/01/15 03:25:18;;;;;;;12.38;6.10;;;6.20;88.90;;;;;;5015667;28;20041;-29
2022/01/15 03:27:44;;;;;;;12.93;6.13;;;6.20;89.00;;;;;;5015636;28;20030;-31
2022/01/15 03:30:11;;;;;;;12.80;6.55;;;6.30;89.00;;;;;;5015537;28;20022;-30
2022/01/15 03:32:42;;;;;;;13.00;6.40;;;6.30;89.00;;;;;;5015306;28;20117;-32
2022/01/15 03:35:12;;;;;;;13.80;6.75;;;6.40;89.00;;;;;;5015335;28;20095;-30
2022/01/15 03:37:38;;;;;;;15.18;7.65;;;6.40;88.80;;;;;;5015709;28;20448;-29
2022/01/15 03:40:07;;;;;;;15.98;7.40;;;6.30;88.80;;;;;;5015290;28;20033;-30
2022/01/15 03:42:33;;;;;;;15.25;6.78;;;6.30;88.80;;;;;;5015297;28;20113;-31
2022/01/15 03:44:59;;;;;;;15.13;7.28;;;6.30;88.80;;;;;;5015318;28;20057;-28
2022/01/15 03:47:25;;;;;;;13.57;6.97;;;6.30;88.80;;;;;;5015438;28;20026;-29
2022/01/15 03:49:50;;;;;;;15.82;6.80;;;6.30;88.80;;;;;;5015150;28;20390;-29
2022/01/15 03:52:16;;;;;;;14.00;6.43;;;6.20;88.80;;;;;;5015030;28;20036;-28
2022/01/15 03:54:41;;;;;;;14.90;5.72;;;6.20;89.40;;;;;;5014943;28;20030;-30
2022/01/15 03:57:07;;;;;;;13.77;6.25;;;6.20;88.80;;;;;;5030196;28;20105;-30
2022/01/15 03:59:33;;;;;;;13.13;6.18;;;6.20;88.90;;;;;;5015029;28;20053;-31
2022/01/15 04:01:58;;;;;;;14.02;6.68;;;6.20;88.80;;;;;;5014908;28;20022;-29
2022/01/15 04:04:24;;;;;;;16.08;6.82;;;6.20;88.80;;;;;;5014813;28;20033;-29
2022/01/15 04:06:50;;;;;;;14.38;6.88;;;6.20;89.00;;;;;;5030056;28;20025;-29
2022/01/15 04:09:17;;;;;;;12.63;6.55;;;6.20;88.90;;;;;;5015002;28;20032;-30
2022/01/15 04:11:43;;;;;;;17.13;7.70;;;6.20;88.80;;;;;;5014751;28;20025;-33
2022/01/15 04:14:09;;;;;;;14.63;6.47;;;6.20;88.70;;;;;;5014568;28;20018;-32
2022/01/15 04:16:35;;;;;;;12.90;6.78;;;6.20;88.60;;;;;;5014762;28;20474;-29
2022/01/15 04:19:01;;;;;;;12.43;6.18;;;6.10;88.60;;;;;;5014913;28;20025;-29
2022/01/15 04:21:27;;;;;;;11.57;6.28;;;6.00;88.80;;;;;;5014526;28;20390;-30
2022/01/15 04:23:53;;;;;;;11.23;6.07;;;6.00;88.90;;;;;;5014614;28;20025;-30
2022/01/15 04:26:24;;;;;;;9.98;5.80;;;6.00;88.90;;;;;;5014442;28;20026;-30
2022/01/15 04:28:50;;;;;;;9.85;5.63;;;6.00;89.00;;;;;;5013779;28;20072;-31
2022/01/15 04:31:17;;;;;;;10.35;6.13;;;6.00;89.00;;;;;;5012777;28;20060;-31
2022/01/15 04:33:43;;;;;;;10.43;5.80;;;6.00;88.90;;;;;;5014197;28;20030;-29
2022/01/15 04:36:12;;;;;;;10.00;5.55;;;5.90;88.90;;;;;;5014231;28;20076;-29
2022/01/15 04:38:38;;;;;;;10.52;6.20;;;6.00;89.00;;;;;;5014380;28;20021;-29
2022/01/15 04:41:08;;;;;;;11.75;6.15;;;5.90;88.90;;;;;;5014519;28;20428;-31
2022/01/15 04:43:34;;;;;;;10.38;5.88;;;5.90;89.00;;;;;;5014197;28;20516;-29
2022/01/15 04:46:00;;;;;;;11.88;6.25;;;5.90;89.10;;;;;;5029277;28;20029;-30
2022/01/15 04:48:26;;;;;;;11.80;6.45;;;6.00;89.10;;;;;;5014093;28;20390;-29
2022/01/15 04:50:51;;;;;;;9.73;5.95;;;6.00;89.00;;;;;;5014001;28;20033;-33
2022/01/15 04:53:17;;;;;;;10.88;6.90;;;5.90;88.90;;;;;;5013862;28;20486;-30
2022/01/15 04:55:43;;;;;;;11.27;6.65;;;5.90;88.90;;;;;;5013957;28;20072;-30
2022/01/15 04:58:09;;;;;;;11.98;6.30;;;6.00;89.10;;;;;;5013915;28;20032;-29
2022/01/15 05:00:35;;;;;;;12.35;6.78;;;6.10;89.00;;;;;;5013832;28;20026;-29
2022/01/15 05:03:01;;;;;;;13.27;7.03;;;6.10;88.90;;;;;;5013831;28;20068;-30
2022/01/15 05:05:28;;;;;;;12.60;6.90;;;6.10;89.00;;;;;;5013775;28;20037;-28
2022/01/15 05:07:55;;;;;;;12.98;7.38;;;6.10;89.00;;;;;;5014023;28;20466;-29
2022/01/15 05:10:25;;;;;;;13.65;8.30;;;6.10;89.00;;;;;;5013787;28;20478;-30
2022/01/15 05:12:51;;;;;;;15.18;8.75;;;6.20;89.00;;;;;;5013918;28;20057;-29
2022/01/15 05:15:18;;;;;;;12.93;8.27;;;6.20;88.80;;;;;;5013904;28;20045;-29
2022/01/15 05:17:45;;;;;;;14.45;8.63;;;6.10;88.70;;;;;;5013594;28;20018;-29
2022/01/15 05:20:12;;;;;;;14.30;7.85;;;6.10;88.80;;;;;;5013471;28;20030;-29
2022/01/15 05:22:38;;;;;;;13.57;7.93;;;6.10;88.90;;;;;;5013414;28;20029;-29
2022/01/15 05:25:07;;;;;;;13.50;8.20;;;6.10;88.90;;;;;;5013497;28;20034;-29
2022/01/15 05:27:35;;;;;;;16.45;9.10;;;6.20;89.00;;;;;;5013663;28;20025;-32
2022/01/15 05:30:00;;;;;;;16.05;8.73;;;6.20;88.90;;;;;;5013748;28;20576;-29
2022/01/15 05:32:26;;;;;;;15.65;8.10;;;6.20;88.90;;;;;;5013325;28;20093;-31
2022/01/15 05:34:51;;;;;;;15.80;8.98;;;6.20;88.80;;;;;;5013091;28;20030;-31
2022/01/15 05:37:17;;;;;;;16.15;8.50;;;6.20;88.80;;;;;;5013251;28;20021;-29
2022/01/15 05:39:43;;;;;;;16.15;7.60;;;6.20;88.80;;;;;;5013265;28;20029;-29
2022/01/15 05:42:09;;;;;;;12.85;7.57;;;6.20;88.80;;;;;;5011859;28;20025;-31
2022/01/15 05:44:35;;;;;;;12.75;7.13;;;6.20;88.90;;;;;;5013508;28;20049;-30
2022/01/15 05:47:01;;;;;;;14.40;7.53;;;6.10;88.80;;;;;;5013468;28;20049;-28
2022/01/15 05:49:26;;;;;;;14.15;7.38;;;6.10;88.80;;;;;;5011892;28;20163;-29
2022/01/15 05:51:52;;;;;;;18.65;7.78;;;6.10;88.80;;;;;;5013210;28;20397;-30
2022/01/15 05:54:18;;;;;;;14.50;8.27;;;6.00;88.90;;;;;;5012976;28;20034;-29
2022/01/15 05:56:44;;;;;;;16.08;8.88;;;5.90;89.00;;;;;;5013183;28;20018;-30
2022/01/15 05:59:09;;;;;;;21.27;8.20;;;5.90;89.20;;;;;;5013078;28;20033;-30
2022/01/15 06:01:36;;;;;;;14.48;8.00;;;6.00;89.20;;;;;;5028311;28;20069;-32
2022/01/15 06:04:02;;;;;;;14.68;8.27;;;5.90;89.10;;;;;;5013142;28;20106;-30
2022/01/15 06:06:28;;;;;;;16.00;8.00;;;6.00;89.10;;;;;;5013266;28;20446;-30
2022/01/15 06:08:54;;;;;;;15.48;8.38;;;5.90;89.00;;;;;;5012960;28;20030;-29
2022/01/15 06:11:19;;;;;;;16.25;8.23;;;5.90;89.10;;;;;;5012949;28;20034;-31
2022/01/15 06:13:46;;;;;;;15.10;8.73;;;5.90;89.10;;;;;;5028134;28;20037;-30
2022/01/15 06:16:12;;;;;;;13.25;7.40;;;5.90;89.20;;;;;;5012982;28;20104;-30
2022/01/15 06:18:38;;;;;;;13.13;7.57;;;6.00;89.30;;;;;;5012949;28;20089;-30
2022/01/15 06:21:03;;;;;;;15.98;8.20;;;6.00;89.20;;;;;;5013034;28;20022;-30
2022/01/15 06:23:29;;;;;;;14.10;6.95;;;6.00;89.10;;;;;;5012799;28;20037;-30
2022/01/15 06:25:55;;;;;;;15.15;6.75;;;6.00;89.10;;;;;;5012958;28;20390;-31
2022/01/15 06:28:21;;;;;;;18.38;7.50;;;6.00;89.10;;;;;;5012818;28;20041;-35
2022/01/15 06:30:47;;;;;;;15.60;7.40;;;6.00;89.20;;;;;;5013116;28;20037;-33
2022/01/15 06:33:12;;;;;;;16.15;7.20;;;6.00;89.10;;;;;;5012602;28;20022;-30
2022/01/15 06:35:38;;;;;;;15.52;7.30;;;6.10;89.20;;;;;;5012646;28;20146;-35
2022/01/15 06:38:04;;;;;;;23.70;7.70;;;6.00;89.10;;;;;;5012792;28;20022;-31
2022/01/15 06:40:31;;;;;;;24.63;7.95;;;6.10;89.10;;;;;;5012673;28;20132;-31
2022/01/15 06:42:57;;;;;;;15.00;7.65;;;6.00;89.10;;;;;;5012696;28;20040;-34
2022/01/15 06:45:23;;;;;;;19.85;7.55;;;6.00;89.10;;;;;;5012629;28;20112;-30
2022/01/15 06:47:48;;;;;;;14.75;8.07;;;6.00;89.10;;;;;;5012697;28;20066;-31
2022/01/15 06:50:14;;;;;;;18.85;7.57;;;6.00;89.30;;;;;;5012649;28;20057;-32
2022/01/15 06:52:39;;;;;;;18.48;7.80;;;6.00;89.20;;;;;;5013297;28;20029;-30
2022/01/15 06:55:07;;;;;;;17.73;7.25;;;6.00;89.30;;;;;;5016122;28;20018;-33
2022/01/15 06:57:33;;;;;;;18.40;7.55;;;6.00;89.20;;;;;;5016154;28;20030;-31
2022/01/15 06:59:59;;;;;;;24.92;8.93;;;6.00;89.20;;;;;;5016117;28;20037;-29
2022/01/15 07:02:24;;;;;;;29.52;8.43;;;5.90;89.10;;;;;;5016006;28;20045;-30
2022/01/15 07:04:50;;;;;;;17.60;8.93;;;5.90;89.20;;;;;;5016078;28;20024;-30
2022/01/15 07:07:15;;;;;;;23.83;8.95;;;5.90;89.40;;;;;;5015967;28;20057;-30
2022/01/15 07:09:41;;;;;;;27.17;8.50;;;5.80;89.30;;;;;;5015941;28;20543;-33
2022/01/15 07:12:07;;;;;;;16.05;7.88;;;5.80;89.40;;;;;;5031121;28;20375;-30
2022/01/15 07:14:33;;;;;;;20.25;8.80;;;5.80;89.50;;;;;;5015761;28;20026;-29
2022/01/15 07:16:59;;;;;;;17.30;9.05;;;5.80;89.60;;;;;;5015759;28;20026;-29
2022/01/15 07:19:25;;;;;;;19.42;9.23;;;5.90;89.60;;;;;;5015723;28;20022;-31
2022/01/15 07:21:50;;;;;;;21.63;8.90;;;5.90;89.50;;;;;;5016021;28;20022;-31
2022/01/15 07:24:16;;;;;;;20.02;9.55;;;5.90;89.50;;;;;;5015566;28;20409;-30
2022/01/15 07:26:42;;;;;;;36.72;10.88;;;6.00;89.60;;;;;;5015668;28;20026;-30
2022/01/15 07:29:14;;;;;;;26.95;10.57;;;6.00;89.60;;;;;;5015465;28;20096;-29
2022/01/15 07:31:40;;;;;;;26.15;10.02;;;6.00;89.50;;;;;;5030623;28;20033;-29
2022/01/15 07:34:06;;;;;;;26.88;9.88;;;6.00;89.50;;;;;;5015225;28;20564;-30
2022/01/15 07:36:31;;;;;;;60.05;10.95;;;5.90;89.50;;;;;;5015402;28;20026;-33
2022/01/15 07:38:57;;;;;;;51.97;11.48;;;6.00;89.60;;;;;;5014061;28;20022;-31
2022/01/15 07:41:23;;;;;;;25.42;10.88;;;6.00;89.60;;;;;;5015196;28;20022;-31
2022/01/15 07:43:49;;;;;;;24.00;11.45;;;6.00;89.60;;;;;;5015455;28;20105;-30
2022/01/15 07:46:15;;;;;;;47.25;11.38;;;5.90;89.50;;;;;;5015111;28;20025;-31
2022/01/15 07:48:40;;;;;;;33.03;11.25;;;5.90;89.50;;;;;;5015144;28;20363;-30
2022/01/15 07:51:07;;;;;;;31.65;13.07;;;5.90;89.60;;;;;;5014990;28;20421;-29
2022/01/15 07:53:33;;;;;;;38.88;12.60;;;5.90;89.60;;;;;;5015293;28;20409;-32
2022/01/15 07:55:58;;;;;;;31.40;12.52;;;5.90;89.60;;;;;;5014894;28;20469;-29
2022/01/15 07:58:24;;;;;;;28.02;11.65;;;6.00;90.10;;;;;;5014771;28;20022;-33
2022/01/15 08:00:50;;;;;;;41.05;12.02;;;6.00;89.70;;;;;;5014820;28;20053;-30
2022/01/15 08:03:15;;;;;;;33.08;12.05;;;6.00;89.70;;;;;;5014679;28;20030;-29
2022/01/15 08:05:41;;;;;;;28.23;11.63;;;5.90;89.60;;;;;;5029993;28;20032;-30
2022/01/15 08:08:07;;;;;;;33.90;12.40;;;6.00;89.70;;;;;;5014739;28;20029;-31
2022/01/15 08:10:33;;;;;;;33.33;12.75;;;5.90;89.70;;;;;;5014802;28;20053;-31
2022/01/15 08:12:59;;;;;;;31.02;12.02;;;5.90;89.80;;;;;;5013363;28;20045;-31
2022/01/15 08:15:25;;;;;;;36.58;13.20;;;5.90;89.70;;;;;;5014873;28;20032;-30
2022/01/15 08:17:51;;;;;;;30.98;12.57;;;5.90;89.70;;;;;;5014824;28;20542;-33
2022/01/15 08:20:17;;;;;;;30.75;13.00;;;5.90;89.80;;;;;;5014808;28;20101;-31
2022/01/15 08:22:45;;;;;;;55.05;13.48;;;6.00;89.90;;;;;;5014848;28;20374;-29
2022/01/15 08:25:16;;;;;;;31.17;13.13;;;6.00;89.80;;;;;;5014530;28;20470;-30
2022/01/15 08:27:42;;;;;;;34.20;12.70;;;6.00;89.80;;;;;;5014766;28;20022;-30
2022/01/15 08:30:08;;;;;;;34.97;14.23;;;5.90;89.80;;;;;;5014373;28;20068;-30
2022/01/15 08:32:34;;;;;;;41.45;12.82;;;6.00;89.80;;;;;;5014387;28;20049;-32
2022/01/15 08:35:00;;;;;;;45.55;14.55;;;6.00;89.80;;;;;;5014017;28;20038;-30
2022/01/15 08:37:26;;;;;;;48.35;12.27;;;6.00;89.80;;;;;;5014279;28;20022;-32
2022/01/15 08:39:53;;;;;;;62.60;13.90;;;6.00;90.00;;;;;;5014228;28;20101;-31
2022/01/15 08:42:19;;;;;;;28.52;12.00;;;5.90;90.10;;;;;;5014099;28;20025;-30
2022/01/15 08:44:45;;;;;;;42.53;13.05;;;5.90;90.30;;;;;;5014081;28;20493;-31
2022/01/15 08:47:11;;;;;;;33.17;14.15;;;5.90;90.40;;;;;;5014090;28;20022;-31
2022/01/15 08:49:38;;;;;;;43.00;13.30;;;5.80;90.30;;;;;;5014011;28;20032;-30
2022/01/15 08:52:04;;;;;;;44.25;14.13;;;5.80;90.30;;;;;;5014043;28;20470;-29
2022/01/15 08:54:30;;;;;;;108.72;17.95;;;5.90;90.30;;;;;;5014213;28;20481;-31
2022/01/15 08:56:56;;;;;;;69.13;15.52;;;5.90;90.30;;;;;;5013934;28;20088;-30
2022/01/15 08:59:23;;;;;;;45.95;13.80;;;5.90;90.20;;;;;;5014137;28;20478;-29
2022/01/15 09:01:49;;;;;;;62.15;14.73;;;5.90;90.20;;;;;;5013776;28;20025;-31
2022/01/15 09:04:15;;;;;;;36.17;14.18;;;5.90;90.20;;;;;;5012519;28;20034;-33
2022/01/15 09:06:40;;;;;;;45.22;15.00;;;5.90;90.10;;;;;;5013819;28;20026;-31
2022/01/15 09:09:06;;;;;;;34.10;13.30;;;5.80;90.10;;;;;;5013696;28;20029;-34
2022/01/15 09:11:32;;;;;;;43.50;13.75;;;5.80;90.10;;;;;;5013777;28;20064;-30
2022/01/15 09:13:57;;;;;;;46.40;14.20;;;5.80;90.20;;;;;;5013662;28;20022;-30
2022/01/15 09:16:23;;;;;;;24.17;12.07;;;5.80;90.20;;;;;;5013090;28;20022;-32
2022/01/15 09:18:49;;;;;;;55.88;14.57;;;5.80;90.20;;;;;;5013916;28;20018;-30
2022/01/15 09:21:16;;;;;;;42.80;13.85;;;5.80;90.20;;;;;;5013405;28;20021;-31
2022/01/15 09:23:42;;;;;;;40.13;13.32;;;5.90;90.20;;;;;;5013549;28;20116;-32
2022/01/15 09:26:18;;;;;;;47.65;14.43;;;5.90;90.20;;;;;;5013628;28;20438;-34
2022/01/15 09:31:28;;;;;;;44.17;14.10;;;5.90;90.20;;;;;;5013591;28;20064;-32
2022/01/15 09:33:53;;;;;;;46.00;13.60;;;5.90;90.10;;;;;;5013264;28;20022;-36
2022/01/15 09:36:19;;;;;;;58.45;14.32;;;5.90;90.10;;;;;;5013392;28;20030;-31
2022/01/15 09:38:45;;;;;;;41.30;14.65;;;6.00;90.10;;;;;;5013379;28;20025;-31
2022/01/15 09:41:11;;;;;;;62.50;14.70;;;6.00;90.10;;;;;;5013501;28;20486;-29
2022/01/15 09:43:39;;;;;;;34.42;14.88;;;6.00;90.10;;;;;;5013163;28;20117;-31
2022/01/15 09:46:06;;;;;;;37.58;12.68;;;6.00;90.10;;;;;;5013141;28;20022;-31
2022/01/15 09:48:33;;;;;;;48.53;13.02;;;6.00;90.10;;;;;;5013043;28;20025;-30
2022/01/15 09:50:59;;;;;;;47.03;14.23;;;6.00;90.20;;;;;;5013368;28;20056;-32
2022/01/15 09:53:25;;;;;;;36.15;14.98;;;6.00;90.20;;;;;;5012997;28;20030;-32
2022/01/15 09:55:52;;;;;;;29.30;13.65;;;6.10;90.10;;;;;;5013049;28;20026;-29
2022/01/15 09:58:18;;;;;;;65.82;15.30;;;6.10;90.20;;;;;;5013250;28;20097;-32
2022/01/15 10:00:44;;;;;;;53.38;14.75;;;6.10;90.10;;;;;;5012977;28;20061;-30
2022/01/15 10:03:10;;;;;;;44.92;14.68;;;6.10;90.10;;;;;;5011815;28;20056;-29
2022/01/15 10:05:36;;;;;;;27.80;13.32;;;6.10;90.10;;;;;;5013359;28;20451;-29
2022/01/15 10:08:07;;;;;;;26.20;12.00;;;6.10;90.10;;;;;;5013398;28;20033;-30
2022/01/15 10:10:34;;;;;;;28.38;10.40;;;6.10;90.10;;;;;;5013293;28;20367;-34
2022/01/15 10:13:22;;;;;;;32.83;11.82;;;6.10;90.10;;;;;;5013037;28;20022;-30
2022/01/15 10:15:59;;;;;;;34.60;11.73;;;6.10;90.30;;;;;;5013030;28;20030;-31
2022/01/15 10:18:30;;;;;;;85.22;12.55;;;6.00;90.20;;;;;;5012953;28;20100;-31
2022/01/15 10:21:26;;;;;;;38.92;11.50;;;6.00;90.20;;;;;;5012975;28;20022;-33
2022/01/15 10:23:57;;;;;;;37.53;10.55;;;5.90;90.20;;;;;;5012857;28;20025;-28
2022/01/15 10:26:25;;;;;;;41.72;11.32;;;6.00;90.30;;;;;;5012863;28;20497;-31
2022/01/15 10:28:54;;;;;;;41.72;11.50;;;5.90;90.30;;;;;;5014264;28;20053;-32
2022/01/15 10:31:25;;;;;;;44.22;13.40;;;6.00;90.30;;;;;;5016585;28;20040;-30
2022/01/15 10:33:52;;;;;;;38.42;11.68;;;5.90;90.20;;;;;;5016385;28;20064;-29
2022/01/15 10:36:23;;;;;;;48.00;11.85;;;5.90;90.30;;;;;;5016519;28;20394;-31
2022/01/15 10:38:49;;;;;;;35.47;11.82;;;6.00;90.30;;;;;;5016512;28;20025;-31
2022/01/15 10:41:35;;;;;;;40.70;11.90;;;5.90;90.20;;;;;;5016539;28;20378;-32
2022/01/15 10:44:21;;;;;;;38.95;11.55;;;6.00;90.20;;;;;;5015179;28;20033;-33
2022/01/15 10:46:47;;;;;;;35.05;11.38;;;5.90;90.20;;;;;;5016334;28;20034;-32
2022/01/15 10:49:25;;;;;;;39.97;12.10;;;5.90;90.20;;;;;;5016369;28;20409;-29
2022/01/15 10:52:21;;;;;;;25.65;11.80;;;6.00;90.20;;;;;;5016276;28;20068;-29
2022/01/15 10:55:00;;;;;;;22.80;11.02;;;6.10;90.20;;;;;;5016450;28;20040;-32
2022/01/15 10:57:38;;;;;;;28.95;11.05;;;6.10;90.20;;;;;;5016191;28;20056;-32
2022/01/15 11:00:21;;;;;;;31.58;11.55;;;6.10;90.20;;;;;;5016368;28;20520;-31
2022/01/15 11:02:52;;;;;;;27.20;11.07;;;6.10;90.30;;;;;;5016174;28;20112;-29
2022/01/15 11:05:34;;;;;;;29.38;11.30;;;6.10;90.30;;;;;;5016322;28;20040;-29
2022/01/15 11:08:17;;;;;;;38.30;11.93;;;6.10;90.40;;;;;;5015997;28;20164;-30
2022/01/15 11:11:03;;;;;;;37.95;11.38;;;6.10;90.30;;;;;;5014726;28;20026;-30
2022/01/15 11:13:31;;;;;;;25.65;11.05;;;6.10;90.50;;;;;;5015807;28;20168;-30
2022/01/15 11:16:00;;;;;;;38.45;12.30;;;6.00;90.60;;;;;;5015839;28;20478;-30
2022/01/15 11:18:29;;;;;;;33.65;11.35;;;6.00;90.60;;;;;;5014527;28;20097;-30
2022/01/15 11:20:57;;;;;;;29.02;11.88;;;6.00;90.60;;;;;;5015989;28;20022;-31
2022/01/15 11:23:26;;;;;;;31.20;12.02;;;6.00;90.80;;;;;;5014357;28;20112;-29
2022/01/15 11:25:53;;;;;;;37.22;13.32;;;6.00;90.70;;;;;;5015629;28;20109;-30
2022/01/15 11:28:28;;;;;;;47.75;13.18;;;6.00;90.60;;;;;;5015464;28;20176;-29
2022/01/15 11:31:08;;;;;;;37.97;13.13;;;6.00;90.70;;;;;;5015401;28;20419;-30
2022/01/15 11:33:36;;;;;;;38.88;13.27;;;6.00;90.70;;;;;;5015523;28;20026;-29
2022/01/15 11:36:03;;;;;;;42.40;11.90;;;6.00;90.70;;;;;;5015220;28;20080;-29
2022/01/15 11:38:43;;;;;;;46.00;12.25;;;6.00;90.80;;;;;;5014750;28;20026;-33
2022/01/15 11:41:27;;;;;;;37.40;12.90;;;6.00;91.00;;;;;;5015320;28;20018;-30
2022/01/15 11:43:54;;;;;;;38.55;12.75;;;6.00;91.10;;;;;;5015056;28;20104;-30
2022/01/15 11:46:26;;;;;;;29.85;11.50;;;6.00;91.00;;;;;;5015102;28;20087;-29
2022/01/15 11:49:12;;;;;;;33.03;11.63;;;6.00;91.00;;;;;;5015113;28;20436;-30
2022/01/15 11:51:37;;;;;;;28.58;11.93;;;6.00;91.00;;;;;;5015066;28;20064;-31
2022/01/15 11:54:10;;;;;;;29.23;11.80;;;6.10;91.00;;;;;;5015077;28;20443;-30
2022/01/15 11:56:44;;;;;;;31.17;11.05;;;6.00;90.80;;;;;;5014979;28;20139;-29
2022/01/15 11:59:25;;;;;;;31.23;10.73;;;6.00;90.90;;;;;;5015219;28;20077;-30
2022/01/15 12:02:00;;;;;;;27.35;10.57;;;6.00;91.10;;;;;;5015094;28;20026;-28
2022/01/15 12:04:34;;;;;;;24.88;11.23;;;5.90;91.30;;;;;;5014948;28;20124;-31
2022/01/15 12:07:05;;;;;;;41.30;12.93;;;5.90;91.30;;;;;;5015152;28;20037;-32
2022/01/15 12:09:33;;;;;;;35.97;12.63;;;5.90;91.20;;;;;;5014736;28;20026;-29
2022/01/15 12:11:59;;;;;;;26.45;12.60;;;5.90;91.20;;;;;;5014690;28;20490;-30
2022/01/15 12:14:46;;;;;;;28.63;11.43;;;5.90;91.50;;;;;;5014748;28;20474;-31
2022/01/15 12:17:23;;;;;;;27.10;12.50;;;5.90;91.50;;;;;;5014611;28;20092;-29
2022/01/15 12:19:49;;;;;;;30.83;11.65;;;5.90;91.50;;;;;;5014532;28;20022;-32
2022/01/15 12:22:34;;;;;;;25.70;12.05;;;5.90;91.60;;;;;;5014512;28;20025;-30
2022/01/15 12:25:00;;;;;;;32.72;12.70;;;5.90;91.50;;;;;;5013291;28;20022;-31
2022/01/15 12:27:28;;;;;;;31.23;12.02;;;5.90;91.50;;;;;;5014606;28;20022;-30
2022/01/15 12:30:17;;;;;;;40.67;12.68;;;6.00;91.40;;;;;;5014462;28;20095;-31
2022/01/15 12:32:47;;;;;;;40.50;12.50;;;6.00;91.40;;;;;;5014241;28;20026;-30
2022/01/15 12:35:18;;;;;;;36.63;12.40;;;6.00;91.50;;;;;;5014029;28;20048;-29
2022/01/15 12:38:03;;;;;;;35.47;11.77;;;6.00;91.40;;;;;;5014639;28;20018;-30
2022/01/15 12:40:41;;;;;;;26.70;10.32;;;5.90;91.50;;;;;;5014175;28;20426;-31
2022/01/15 12:43:16;;;;;;;30.65;11.50;;;5.80;92.00;;;;;;5014302;28;20025;-31
2022/01/15 12:45:42;;;;;;;27.85;12.32;;;5.80;92.20;;;;;;5014383;28;20029;-30
2022/01/15 12:48:15;;;;;;;29.73;12.80;;;5.80;92.30;;;;;;5014416;28;20137;-30
2022/01/15 12:51:06;;;;;;;32.77;13.20;;;5.80;92.20;;;;;;5013321;28;20500;-31
2022/01/15 12:53:35;;;;;;;46.53;12.90;;;5.80;92.00;;;;;;5011265;28;20034;-30
2022/01/15 12:56:09;;;;;;;34.58;11.50;;;5.80;91.80;;;;;;5014104;28;20050;-30
2022/01/15 12:58:35;;;;;;;39.53;12.90;;;5.70;91.90;;;;;;5014221;28;20022;-31
2022/01/15 13:01:03;;;;;;;35.00;13.48;;;5.60;91.80;;;;;;5014049;28;20474;-30
2022/01/15 13:03:30;;;;;;;37.33;14.02;;;5.60;91.80;;;;;;5014120;28;20025;-35
2022/01/15 13:06:00;;;;;;;45.42;14.60;;;5.60;91.70;;;;;;5014141;28;20040;-31
2022/01/15 13:08:32;;;;;;;35.28;14.50;;;5.70;91.70;;;;;;5013742;28;20014;-30
2022/01/15 13:11:04;;;;;;;45.63;15.43;;;5.80;91.60;;;;;;5013718;28;20042;-29
2022/01/15 13:13:38;;;;;;;52.20;16.00;;;5.80;91.50;;;;;;5013899;28;20034;-30